createdAt,value
2018-03-22T00:00:13.434Z,25.48
2018-03-22T00:02:41.713Z,25.63
2018-03-22T00:05:10.769Z,21.17
2018-03-22T00:07:39.013Z,23.97
2018-03-22T00:10:08.760Z,26.23
2018-03-22T00:12:38.118Z,22.92
2018-03-22T00:15:07.121Z,24.95
2018-03-22T00:17:36.133Z,24.55
2018-03-22T00:20:04.416Z,23.20
2018-03-22T00:22:38.342Z,27.13
2018-03-22T00:25:08.109Z,26.60
2018-03-22T00:27:36.745Z,25.98
2018-03-22T00:30:05.761Z,33.20
2018-03-22T00:32:34.057Z,26.52
2018-03-22T00:35:02.292Z,24.10
2018-03-22T00:37:30.537Z,26.00
2018-03-22T00:39:59.200Z,30.33
2018-03-22T00:42:28.202Z,25.17
2018-03-22T00:44:56.435Z,24.48
2018-03-22T00:47:24.704Z,26.40
2018-03-22T00:49:52.940Z,25.48
2018-03-22T00:52:21.171Z,33.10
2018-03-22T00:54:50.952Z,28.58
2018-03-22T00:57:19.190Z,33.08
2018-03-22T00:59:47.424Z,28.83
2018-03-22T01:02:16.092Z,34.60
2018-03-22T01:04:45.837Z,25.85
2018-03-22T01:07:14.072Z,31.97
2018-03-22T01:09:42.365Z,26.35
2018-03-22T01:12:11.369Z,28.98
2018-03-22T01:14:40.376Z,28.38
2018-03-22T01:17:08.985Z,23.75
2018-03-22T01:19:38.728Z,26.67
2018-03-22T01:22:06.960Z,26.23
2018-03-22T01:24:35.564Z,24.53
2018-03-22T01:27:04.188Z,27.02
2018-03-22T01:29:32.429Z,29.47
2018-03-22T01:32:00.696Z,23.73
2018-03-22T01:34:29.327Z,22.02
2018-03-22T01:36:57.564Z,22.05
2018-03-22T01:39:25.862Z,23.10
2018-03-22T01:41:55.236Z,26.48
2018-03-22T01:44:23.469Z,25.97
2018-03-22T01:46:51.735Z,27.50
2018-03-22T01:49:19.975Z,24.67
2018-03-22T01:51:48.231Z,24.52
2018-03-22T01:54:17.840Z,23.80
2018-03-22T01:56:45.951Z,21.40
2018-03-22T01:59:14.189Z,27.43
2018-03-22T02:01:43.973Z,22.52
2018-03-22T02:04:13.565Z,24.33
2018-03-22T02:06:42.817Z,24.48
2018-03-22T02:09:11.088Z,22.50
2018-03-22T02:11:40.107Z,23.77
2018-03-22T02:14:08.320Z,22.50
2018-03-22T02:16:36.592Z,21.97
2018-03-22T02:19:04.820Z,28.73
2018-03-22T02:21:33.056Z,21.75
2018-03-22T02:24:02.857Z,20.10
2018-03-22T02:26:31.089Z,22.80
2018-03-22T02:28:59.716Z,21.00
2018-03-22T02:31:28.008Z,21.08
2018-03-22T02:33:57.388Z,29.55
2018-03-22T02:36:25.620Z,25.20
2018-03-22T02:38:53.892Z,20.70
2018-03-22T02:41:22.130Z,24.07
2018-03-22T02:43:50.361Z,22.33
2018-03-22T02:46:18.636Z,21.30
2018-03-22T02:48:46.868Z,26.10
2018-03-22T02:51:15.102Z,23.53
2018-03-22T02:53:44.138Z,26.70
2018-03-22T02:56:12.368Z,24.10
2018-03-22T02:58:40.600Z,20.43
2018-03-22T03:01:08.872Z,22.03
2018-03-22T03:03:37.108Z,21.87
2018-03-22T03:06:06.845Z,24.20
2018-03-22T03:08:35.112Z,20.20
2018-03-22T03:11:03.341Z,21.70
2018-03-22T03:13:31.576Z,21.87
2018-03-22T03:15:59.852Z,22.40
2018-03-22T03:18:28.080Z,19.87
2018-03-22T03:20:56.316Z,25.40
2018-03-22T03:23:25.356Z,25.37
2018-03-22T03:25:54.352Z,22.03
2018-03-22T03:28:22.580Z,26.03
2018-03-22T03:30:50.864Z,21.90
2018-03-22T03:33:19.857Z,21.13
2018-03-22T03:35:48.879Z,22.70
2018-03-22T03:38:17.153Z,23.07
2018-03-22T03:40:46.158Z,27.27
2018-03-22T03:43:15.152Z,20.63
2018-03-22T03:45:44.564Z,27.23
2018-03-22T03:48:12.796Z,21.73
2018-03-22T03:50:41.028Z,24.70
2018-03-22T03:53:09.293Z,26.87
2018-03-22T03:55:37.522Z,22.23
2018-03-22T03:58:05.786Z,27.53
2018-03-22T04:00:34.016Z,27.97
2018-03-22T04:03:02.292Z,26.17
2018-03-22T04:05:31.670Z,26.37
2018-03-22T04:07:59.904Z,27.90
2018-03-22T04:10:29.688Z,26.63
2018-03-22T04:12:58.313Z,23.50
2018-03-22T04:15:27.685Z,30.00
2018-03-22T04:17:55.966Z,24.87
2018-03-22T04:20:24.968Z,29.17
2018-03-22T04:22:53.204Z,26.07
2018-03-22T04:25:22.229Z,28.40
2018-03-22T04:27:51.225Z,29.23
2018-03-22T04:30:20.623Z,26.10
2018-03-22T04:32:48.901Z,34.20
2018-03-22T04:35:17.140Z,29.00
2018-03-22T04:37:45.401Z,32.73
2018-03-22T04:40:13.689Z,36.80
2018-03-22T04:42:41.924Z,26.10
2018-03-22T04:45:10.168Z,30.63
2018-03-22T04:47:38.428Z,28.63
2018-03-22T04:50:08.174Z,32.80
2018-03-22T04:52:36.409Z,29.90
2018-03-22T04:55:04.682Z,38.80
2018-03-22T04:57:32.921Z,35.35
2018-03-22T05:00:01.923Z,29.47
2018-03-22T05:02:30.200Z,28.50
2018-03-22T05:04:58.439Z,27.75
2018-03-22T05:07:28.212Z,35.97
2018-03-22T05:09:56.480Z,36.40
2018-03-22T05:12:24.717Z,31.80
2018-03-22T05:14:52.957Z,37.53
2018-03-22T05:17:21.232Z,29.58
2018-03-22T05:19:49.473Z,32.97
2018-03-22T05:22:19.059Z,33.93
2018-03-22T05:24:47.212Z,34.97
2018-03-22T05:27:16.964Z,32.87
2018-03-22T05:29:45.198Z,31.90
2018-03-22T05:32:13.684Z,30.00
2018-03-22T05:34:41.916Z,33.63
2018-03-22T05:37:10.159Z,33.53
2018-03-22T05:39:38.449Z,33.47
2018-03-22T05:42:06.684Z,31.85
2018-03-22T05:44:35.688Z,30.70
2018-03-22T05:47:04.712Z,28.07
2018-03-22T05:49:34.304Z,30.37
2018-03-22T05:52:02.445Z,34.13
2018-03-22T05:54:30.713Z,32.95
2018-03-22T05:56:58.952Z,36.63
2018-03-22T05:59:27.212Z,34.97
2018-03-22T06:01:55.471Z,26.87
2018-03-22T06:04:23.706Z,32.77
2018-03-22T06:06:51.968Z,31.40
2018-03-22T06:09:21.004Z,34.70
2018-03-22T06:11:49.236Z,37.70
2018-03-22T06:14:17.500Z,30.63
2018-03-22T06:16:47.376Z,26.92
2018-03-22T06:19:16.252Z,30.23
2018-03-22T06:21:44.493Z,32.08
2018-03-22T06:24:12.756Z,30.63
2018-03-22T06:26:41.767Z,32.05
2018-03-22T06:29:09.995Z,30.93
2018-03-22T06:31:38.280Z,29.63
2018-03-22T06:34:06.516Z,35.08
2018-03-22T06:36:34.756Z,32.40
2018-03-22T06:39:03.029Z,33.23
2018-03-22T06:41:31.269Z,32.60
2018-03-22T06:43:59.508Z,36.13
2018-03-22T06:46:29.140Z,32.88
2018-03-22T06:48:57.256Z,36.00
2018-03-22T06:51:25.488Z,35.88
2018-03-22T06:53:53.756Z,30.88
2018-03-22T06:56:22.022Z,29.58
2018-03-22T06:58:51.024Z,43.72
2018-03-22T07:01:23.444Z,35.40
2018-03-22T07:03:51.680Z,37.72
2018-03-22T07:06:19.916Z,32.73
2018-03-22T07:08:48.209Z,32.80
2018-03-22T07:11:16.448Z,37.22
2018-03-22T07:13:44.693Z,35.75
2018-03-22T07:16:12.960Z,35.65
2018-03-22T07:18:41.206Z,36.92
2018-03-22T07:21:10.945Z,29.77
2018-03-22T07:23:40.356Z,38.57
2018-03-22T07:26:08.593Z,35.67
2018-03-22T07:28:37.596Z,31.35
2018-03-22T07:31:06.900Z,37.92
2018-03-22T07:33:35.133Z,36.13
2018-03-22T07:36:03.372Z,30.60
2018-03-22T07:38:31.641Z,30.90
2018-03-22T07:41:01.237Z,29.40
2018-03-22T07:43:36.497Z,33.13
2018-03-22T07:46:05.975Z,29.87
2018-03-22T07:48:34.480Z,32.60
2018-03-22T07:51:03.528Z,30.80
2018-03-22T07:53:32.546Z,31.43
2018-03-22T07:56:01.912Z,32.33
2018-03-22T07:58:30.187Z,32.40
2018-03-22T08:00:58.416Z,33.08
2018-03-22T08:03:26.643Z,31.13
2018-03-22T08:05:54.947Z,33.58
2018-03-22T08:08:24.293Z,31.80
2018-03-22T08:10:52.525Z,36.00
2018-03-22T08:13:20.832Z,36.72
2018-03-22T08:15:50.730Z,35.20
2018-03-22T08:18:18.836Z,34.67
2018-03-22T08:20:47.121Z,38.50
2018-03-22T08:23:15.357Z,38.63
2018-03-22T08:25:43.589Z,37.60
2018-03-22T08:28:12.993Z,39.60
2018-03-22T08:30:41.992Z,42.73
2018-03-22T08:33:10.228Z,38.87
2018-03-22T08:35:38.488Z,34.70
2018-03-22T08:38:07.485Z,35.87
2018-03-22T08:40:35.724Z,35.33
2018-03-22T08:43:03.984Z,35.80
2018-03-22T08:45:32.220Z,33.33
2018-03-22T08:48:00.844Z,33.73
2018-03-22T08:50:29.107Z,37.83
2018-03-22T08:52:57.349Z,34.70
2018-03-22T08:55:25.575Z,39.93
2018-03-22T08:57:54.964Z,36.33
2018-03-22T09:00:23.200Z,34.90
2018-03-22T09:02:52.569Z,35.30
2018-03-22T09:05:21.972Z,35.40
2018-03-22T09:07:51.339Z,32.27
2018-03-22T09:10:19.572Z,35.50
2018-03-22T09:12:47.852Z,33.43
2018-03-22T09:15:17.439Z,33.33
2018-03-22T09:17:46.312Z,35.53
2018-03-22T09:20:14.594Z,30.60
2018-03-22T09:22:43.588Z,32.30
2018-03-22T09:25:11.817Z,34.87
2018-03-22T09:27:40.101Z,31.40
2018-03-22T09:30:09.825Z,29.63
2018-03-22T09:32:38.052Z,32.00
2018-03-22T09:35:06.318Z,31.37
2018-03-22T09:37:34.553Z,33.97
2018-03-22T09:40:02.793Z,31.73
2018-03-22T09:42:31.060Z,31.90
2018-03-22T09:44:59.288Z,28.80
2018-03-22T09:47:27.521Z,28.70
2018-03-22T09:49:55.788Z,32.07
2018-03-22T09:52:24.024Z,30.47
2018-03-22T09:54:53.028Z,32.23
2018-03-22T09:57:22.043Z,29.00
2018-03-22T09:59:51.455Z,32.47
2018-03-22T10:02:19.680Z,30.70
2018-03-22T10:04:47.952Z,32.00
2018-03-22T10:07:16.176Z,28.23
2018-03-22T10:09:45.925Z,29.73
2018-03-22T10:12:14.946Z,31.50
2018-03-22T10:14:43.941Z,28.63
2018-03-22T10:17:12.971Z,27.07
2018-03-22T10:19:42.381Z,30.33
2018-03-22T10:22:10.612Z,26.70
2018-03-22T10:24:38.846Z,27.50
2018-03-22T10:27:07.117Z,29.40
2018-03-22T10:29:36.704Z,32.30
2018-03-22T10:32:04.812Z,37.37
2018-03-22T10:34:33.384Z,30.80
2018-03-22T10:37:02.967Z,33.17
2018-03-22T10:39:31.076Z,31.53
2018-03-22T10:42:00.113Z,24.70
2018-03-22T10:44:28.336Z,30.63
2018-03-22T10:46:56.568Z,29.03
2018-03-22T10:49:24.852Z,28.97
2018-03-22T10:51:53.480Z,27.20
2018-03-22T10:54:21.708Z,31.87
2018-03-22T10:56:49.997Z,28.77
2018-03-22T10:59:18.993Z,26.80
2018-03-22T11:01:53.018Z,25.80
2018-03-22T11:04:21.257Z,26.10
2018-03-22T11:06:50.253Z,25.63
2018-03-22T11:09:18.668Z,27.30
2018-03-22T11:11:48.424Z,22.90
2018-03-22T11:14:17.416Z,22.23
2018-03-22T11:16:45.680Z,24.33
2018-03-22T11:19:13.908Z,24.90
2018-03-22T11:21:43.498Z,22.00
2018-03-22T11:24:12.407Z,23.23
2018-03-22T11:26:42.300Z,21.93
2018-03-22T11:29:12.068Z,21.63
2018-03-22T11:31:41.692Z,22.90
2018-03-22T11:34:09.800Z,20.80
2018-03-22T11:36:38.849Z,21.10
2018-03-22T11:39:07.913Z,25.77
2018-03-22T11:41:36.148Z,22.70
2018-03-22T11:44:05.916Z,23.20
2018-03-22T11:46:34.160Z,25.97
2018-03-22T11:49:02.392Z,25.97
2018-03-22T11:51:30.663Z,24.00
2018-03-22T11:54:00.252Z,24.80
2018-03-22T11:56:28.367Z,22.70
2018-03-22T11:58:56.830Z,24.17
2018-03-22T12:01:25.060Z,23.63
2018-03-22T12:03:54.068Z,21.07
2018-03-22T12:06:23.200Z,22.03
2018-03-22T12:08:52.787Z,21.13
2018-03-22T12:11:21.297Z,22.77
2018-03-22T12:13:50.340Z,22.90
2018-03-22T12:16:19.340Z,26.33
2018-03-22T12:18:48.340Z,23.37
2018-03-22T12:21:16.614Z,26.20
2018-03-22T12:23:44.844Z,23.83
2018-03-22T12:26:13.850Z,22.23
2018-03-22T12:28:42.127Z,22.90
2018-03-22T12:31:10.357Z,23.43
2018-03-22T12:33:38.593Z,22.70
2018-03-22T12:36:06.888Z,24.23
2018-03-22T12:38:36.256Z,20.83
2018-03-22T12:41:04.489Z,23.83
2018-03-22T12:43:32.783Z,24.20
2018-03-22T12:46:00.988Z,23.53
2018-03-22T12:48:29.257Z,21.97
2018-03-22T12:50:57.524Z,18.77
2018-03-22T12:53:25.765Z,19.10
2018-03-22T12:55:54.028Z,17.70
2018-03-22T12:58:22.300Z,18.00
2018-03-22T13:00:50.536Z,15.83
2018-03-22T13:03:19.534Z,15.30
2018-03-22T13:05:48.581Z,16.53
2018-03-22T13:08:16.812Z,15.10
2018-03-22T13:10:45.819Z,17.83
2018-03-22T13:13:14.108Z,19.83
2018-03-22T13:15:42.353Z,16.60
2018-03-22T13:18:10.596Z,17.37
2018-03-22T13:20:38.871Z,17.80
2018-03-22T13:23:08.608Z,16.40
2018-03-22T13:25:37.617Z,17.17
2018-03-22T13:28:07.397Z,17.40
2018-03-22T13:30:35.632Z,21.23
2018-03-22T13:33:03.885Z,17.50
2018-03-22T13:35:32.920Z,17.40
2018-03-22T13:38:01.158Z,24.77
2018-03-22T13:40:29.400Z,18.90
2018-03-22T13:42:59.184Z,22.07
2018-03-22T13:45:27.424Z,19.40
2018-03-22T13:47:56.432Z,25.47
2018-03-22T13:50:26.370Z,23.63
2018-03-22T13:52:54.493Z,26.03
2018-03-22T13:55:23.876Z,25.60
2018-03-22T13:57:52.157Z,25.80
2018-03-22T14:00:20.421Z,20.87
2018-03-22T14:02:48.659Z,22.90
2018-03-22T14:05:16.935Z,25.03
2018-03-22T14:07:45.172Z,27.27
2018-03-22T14:10:13.413Z,22.53
2018-03-22T14:12:42.668Z,25.70
2018-03-22T14:15:10.897Z,20.67
2018-03-22T14:17:39.144Z,34.30
2018-03-22T14:20:08.346Z,30.30
2018-03-22T14:22:36.979Z,27.97
2018-03-22T14:25:05.984Z,25.53
2018-03-22T14:27:34.574Z,26.47
2018-03-22T14:30:03.561Z,28.73
2018-03-22T14:32:31.840Z,25.87
2018-03-22T14:35:00.081Z,21.00
2018-03-22T14:37:28.312Z,21.23
2018-03-22T14:39:56.577Z,22.63
2018-03-22T14:42:24.816Z,24.50
2018-03-22T14:44:53.084Z,23.00
2018-03-22T14:47:22.472Z,21.90
2018-03-22T14:49:51.544Z,22.93
2018-03-22T14:52:20.653Z,25.07
2018-03-22T14:54:49.821Z,22.17
2018-03-22T14:57:18.851Z,19.20
2018-03-22T14:59:47.189Z,23.23
2018-03-22T15:02:15.427Z,21.40
2018-03-22T15:04:43.673Z,19.73
2018-03-22T15:07:12.029Z,29.30
2018-03-22T15:09:41.664Z,23.30
2018-03-22T15:12:09.768Z,24.10
2018-03-22T15:14:38.057Z,25.97
2018-03-22T15:17:06.305Z,26.97
2018-03-22T15:19:35.692Z,22.80
2018-03-22T15:22:05.644Z,24.53
2018-03-22T15:24:33.933Z,21.27
2018-03-22T15:27:02.197Z,19.07
2018-03-22T15:29:30.469Z,26.30
2018-03-22T15:31:59.469Z,21.80
2018-03-22T15:34:29.240Z,23.67
2018-03-22T15:36:57.508Z,28.10
2018-03-22T15:39:25.754Z,26.13
2018-03-22T15:41:54.763Z,22.20
2018-03-22T15:44:23.806Z,20.73
2018-03-22T15:46:52.805Z,33.20
2018-03-22T15:49:21.049Z,24.47
2018-03-22T15:51:49.332Z,24.87
2018-03-22T15:54:17.568Z,24.17
2018-03-22T15:56:45.812Z,23.50
2018-03-22T15:59:14.107Z,19.87
2018-03-22T16:01:42.346Z,23.63
2018-03-22T16:04:11.848Z,21.93
2018-03-22T16:06:40.123Z,30.13
2018-03-22T16:09:09.134Z,17.80
2018-03-22T16:11:37.764Z,30.90
2018-03-22T16:14:06.060Z,31.60
2018-03-22T16:16:34.275Z,18.70
2018-03-22T16:19:02.513Z,10.67
2018-03-22T16:21:30.792Z,13.40
2018-03-22T16:23:59.026Z,8.93
2018-03-22T16:26:27.258Z,9.10
2018-03-22T16:28:56.672Z,8.33
2018-03-22T16:31:24.900Z,7.57
2018-03-22T16:33:53.524Z,9.70
2018-03-22T16:36:21.812Z,13.77
2018-03-22T16:38:50.810Z,8.63
2018-03-22T16:41:19.437Z,11.70
2018-03-22T16:43:48.483Z,9.23
2018-03-22T16:46:17.476Z,17.80
2018-03-22T16:48:46.481Z,15.73
2018-03-22T16:51:14.791Z,11.80
2018-03-22T16:53:43.793Z,18.37
2018-03-22T16:56:12.032Z,12.40
2018-03-22T16:58:40.899Z,10.47
2018-03-22T17:01:09.140Z,13.13
2018-03-22T17:03:38.512Z,19.00
2018-03-22T17:06:08.147Z,16.60
2018-03-22T17:08:36.644Z,16.73
2018-03-22T17:11:04.880Z,14.70
2018-03-22T17:13:33.184Z,13.23
2018-03-22T17:16:01.382Z,9.97
2018-03-22T17:18:29.616Z,10.87
2018-03-22T17:20:57.889Z,11.57
2018-03-22T17:23:26.132Z,7.70
2018-03-22T17:25:54.356Z,8.40
2018-03-22T17:28:22.633Z,8.80
2018-03-22T17:30:51.634Z,11.03
2018-03-22T17:33:19.885Z,7.30
2018-03-22T17:35:48.157Z,7.40
2018-03-22T17:38:16.391Z,14.93
2018-03-22T17:40:44.621Z,8.60
2018-03-22T17:43:12.892Z,7.30
2018-03-22T17:45:41.128Z,10.97
2018-03-22T17:48:10.881Z,8.70
2018-03-22T17:50:39.149Z,13.67
2018-03-22T17:53:07.381Z,9.17
2018-03-22T17:55:35.605Z,9.47
2018-03-22T17:58:04.840Z,10.70
2018-03-22T18:00:33.849Z,6.43
2018-03-22T18:05:59.925Z,17.90
2018-03-22T18:08:28.578Z,16.70
2018-03-22T18:10:57.555Z,11.80
2018-03-22T18:13:25.853Z,7.77
2018-03-22T18:15:54.089Z,13.13
2018-03-22T18:18:23.469Z,15.17
2018-03-22T18:20:51.752Z,10.73
2018-03-22T18:23:19.991Z,8.23
2018-03-22T18:25:50.268Z,12.03
2018-03-22T18:28:18.413Z,15.00
2018-03-22T18:30:46.659Z,12.30
2018-03-22T18:33:14.898Z,14.83
2018-03-22T18:35:43.189Z,10.00
2018-03-22T18:38:12.565Z,13.80
2018-03-22T18:40:40.835Z,18.47
2018-03-22T18:43:09.884Z,26.53
2018-03-22T18:45:39.481Z,21.87
2018-03-22T18:48:09.109Z,30.63
2018-03-22T18:50:38.445Z,25.70
2018-03-22T18:53:07.076Z,30.40
2018-03-22T18:55:36.126Z,20.80
2018-03-22T18:58:05.510Z,36.20
2018-03-22T19:00:33.736Z,25.97
2018-03-22T19:06:02.472Z,23.70
2018-03-22T19:08:31.104Z,24.20
2018-03-22T19:11:00.127Z,29.93
2018-03-22T19:13:28.552Z,25.90
2018-03-22T19:15:56.784Z,27.13
2018-03-22T19:18:25.434Z,29.53
2018-03-22T19:20:53.706Z,36.13
2018-03-22T19:23:22.723Z,28.13
2018-03-22T19:25:52.318Z,26.40
2018-03-22T19:28:21.604Z,36.33
2018-03-22T19:30:49.854Z,28.30
2018-03-22T19:33:18.090Z,29.70
2018-03-22T19:35:47.150Z,29.13
2018-03-22T19:38:15.794Z,29.53
2018-03-22T19:40:45.174Z,39.00
2018-03-22T19:43:14.224Z,24.93
2018-03-22T19:45:42.461Z,24.20
2018-03-22T19:48:11.833Z,29.07
2018-03-22T19:50:40.123Z,24.83
2018-03-22T19:53:09.717Z,26.13
2018-03-22T19:55:37.842Z,22.73
2018-03-22T19:58:06.116Z,27.50
2018-03-22T20:00:35.139Z,22.80
2018-03-22T20:03:05.010Z,25.50
2018-03-22T20:05:33.324Z,22.63
2018-03-22T20:08:01.529Z,25.00
2018-03-22T20:10:30.533Z,22.20
2018-03-22T20:12:58.852Z,21.27
2018-03-22T20:15:27.126Z,26.07
2018-03-22T20:17:55.343Z,23.83
2018-03-22T20:20:23.608Z,22.43
2018-03-22T20:22:53.364Z,18.17
2018-03-22T20:25:21.592Z,14.47
2018-03-22T20:27:49.879Z,14.57
2018-03-22T20:30:18.112Z,15.40
2018-03-22T20:32:46.389Z,16.27
2018-03-22T20:35:15.771Z,16.93
2018-03-22T20:37:44.786Z,21.57
2018-03-22T20:40:13.032Z,24.27
2018-03-22T20:42:41.333Z,18.90
2018-03-22T20:45:10.332Z,21.73
2018-03-22T20:47:39.346Z,16.00
2018-03-22T20:50:08.398Z,17.47
2018-03-22T20:52:36.624Z,24.33
2018-03-22T20:55:04.874Z,22.60
2018-03-22T20:57:33.916Z,23.97
2018-03-22T21:00:02.149Z,21.07
2018-03-22T21:02:31.144Z,18.13
2018-03-22T21:04:59.427Z,18.80
2018-03-22T21:07:28.052Z,23.70
2018-03-22T21:09:56.312Z,25.63
2018-03-22T21:12:24.589Z,17.67
2018-03-22T21:14:54.378Z,15.47
2018-03-22T21:17:23.952Z,21.43
2018-03-22T21:19:52.093Z,21.27
2018-03-22T21:22:21.097Z,22.87
2018-03-22T21:24:49.369Z,16.90
2018-03-22T21:27:18.385Z,29.13
2018-03-22T21:29:46.612Z,21.97
2018-03-22T21:32:14.886Z,24.57
2018-03-22T21:34:43.116Z,17.70
2018-03-22T21:37:11.761Z,21.83
2018-03-22T21:39:40.991Z,19.97
2018-03-22T21:42:09.234Z,18.27
2018-03-22T21:44:37.465Z,17.23
2018-03-22T21:47:21.708Z,19.90
2018-03-22T21:49:49.945Z,21.13
2018-03-22T21:52:31.032Z,18.33
2018-03-22T21:55:00.620Z,16.63
2018-03-22T21:57:29.508Z,19.90
2018-03-22T22:00:01.358Z,17.27
2018-03-22T22:02:30.962Z,19.57
2018-03-22T22:04:59.864Z,23.47
2018-03-22T22:07:28.872Z,24.00
2018-03-22T22:09:58.491Z,15.63
2018-03-22T22:12:26.597Z,21.57
2018-03-22T22:14:54.885Z,22.17
2018-03-22T22:17:24.271Z,21.53
2018-03-22T22:19:52.514Z,19.50
2018-03-22T22:22:21.544Z,17.43
2018-03-22T22:24:49.795Z,14.10
2018-03-22T22:27:18.806Z,21.23
2018-03-22T22:29:47.268Z,21.60
2018-03-22T22:32:15.518Z,26.80
2018-03-22T22:34:43.759Z,24.63
2018-03-22T22:37:13.239Z,21.20
2018-03-22T22:39:42.209Z,18.87
2018-03-22T22:42:11.580Z,24.37
2018-03-22T22:44:39.894Z,22.67
2018-03-22T22:47:08.118Z,20.40
2018-03-22T22:49:36.357Z,27.37
2018-03-22T22:52:04.870Z,24.63
2018-03-22T22:54:34.608Z,20.17
2018-03-22T22:57:02.854Z,21.40
2018-03-22T22:59:31.141Z,21.03
2018-03-22T23:01:59.378Z,21.67
2018-03-22T23:04:27.626Z,30.70
2018-03-22T23:06:55.889Z,29.63
2018-03-22T23:09:24.914Z,23.73
2018-03-22T23:11:53.933Z,22.73
2018-03-22T23:14:22.996Z,18.47
2018-03-22T23:16:51.235Z,23.70
2018-03-22T23:19:20.241Z,23.90
2018-03-22T23:21:49.889Z,15.67
2018-03-22T23:24:18.011Z,22.57
2018-03-22T23:26:46.250Z,24.90
2018-03-22T23:29:14.516Z,27.10
2018-03-22T23:31:42.753Z,23.70
2018-03-22T23:34:11.002Z,21.57
2018-03-22T23:36:40.038Z,21.73
2018-03-22T23:39:08.287Z,23.13
2018-03-22T23:41:36.531Z,23.00
2018-03-22T23:44:06.338Z,31.60
2018-03-22T23:46:34.586Z,22.43
2018-03-22T23:49:02.825Z,29.20
2018-03-22T23:51:31.492Z,27.60
2018-03-22T23:53:59.717Z,37.43
2018-03-22T23:56:28.739Z,32.83
2018-03-22T23:58:57.003Z,26.70
